sensor_id;sensor_type;location;lat;lon;timestamp;temperature;humidity
30865;DHT22;17574;49.418;11.038;2023-04-15T00:16:21;8.10;53.00
30865;DHT22;17574;49.418;11.038;2023-04-15T00:38:25;8.10;54.10
30865;DHT22;17574;49.418;11.038;2023-04-15T01:10:17;8.10;57.90
30865;DHT22;17574;49.418;11.038;2023-04-15T01:34:49;8.00;58.80
30865;DHT22;17574;49.418;11.038;2023-04-15T01:49:32;7.90;60.00
30865;DHT22;17574;49.418;11.038;2023-04-15T04:36:28;7.90;60.30
30865;DHT22;17574;49.418;11.038;2023-04-15T05:30:26;8.40;56.80
30865;DHT22;17574;49.418;11.038;2023-04-15T06:29:21;9.40;45.90
30865;DHT22;17574;49.418;11.038;2023-04-15T06:31:48;9.50;43.80
30865;DHT22;17574;49.418;11.038;2023-04-15T06:51:25;10.10;33.70
30865;DHT22;17574;49.418;11.038;2023-04-15T07:13:30;10.60;26.40
30865;DHT22;17574;49.418;11.038;2023-04-15T07:28:13;11.00;25.30
30865;DHT22;17574;49.418;11.038;2023-04-15T07:30:40;11.00;24.40
30865;DHT22;17574;49.418;11.038;2023-04-15T07:33:07;11.00;24.10
30865;DHT22;17574;49.418;11.038;2023-04-15T07:35:33;11.10;20.90
30865;DHT22;17574;49.418;11.038;2023-04-15T07:38:00;11.20;20.60
30865;DHT22;17574;49.418;11.038;2023-04-15T07:40:27;11.40;20.40
30865;DHT22;17574;49.418;11.038;2023-04-15T07:42:54;11.50;20.70
30865;DHT22;17574;49.418;11.038;2023-04-15T07:45:21;13.90;18.80
30865;DHT22;17574;49.418;11.038;2023-04-15T07:47:48;11.90;16.10
30865;DHT22;17574;49.418;11.038;2023-04-15T07:50:16;11.90;14.30
30865;DHT22;17574;49.418;11.038;2023-04-15T07:52:43;11.80;13.50
30865;DHT22;17574;49.418;11.038;2023-04-15T07:55:10;11.70;15.20
30865;DHT22;17574;49.418;11.038;2023-04-15T07:57:36;11.80;18.00
30865;DHT22;17574;49.418;11.038;2023-04-15T08:00:03;11.70;15.90
30865;DHT22;17574;49.418;11.038;2023-04-15T08:02:33;11.80;13.10
30865;DHT22;17574;49.418;11.038;2023-04-15T08:05:02;11.70;11.10
30865;DHT22;17574;49.418;11.038;2023-04-15T08:07:29;11.70;14.30
30865;DHT22;17574;49.418;11.038;2023-04-15T08:09:56;11.70;14.40
30865;DHT22;17574;49.418;11.038;2023-04-15T08:12:23;11.70;13.00
30865;DHT22;17574;49.418;11.038;2023-04-15T08:14:50;11.80;14.10
30865;DHT22;17574;49.418;11.038;2023-04-15T08:17:17;12.00;11.40
30865;DHT22;17574;49.418;11.038;2023-04-15T08:19:43;12.10;11.50
30865;DHT22;17574;49.418;11.038;2023-04-15T08:22:10;12.00;11.40
30865;DHT22;17574;49.418;11.038;2023-04-15T08:24:44;11.80;12.60
30865;DHT22;17574;49.418;11.038;2023-04-15T08:27:11;11.90;11.30
30865;DHT22;17574;49.418;11.038;2023-04-15T08:29:38;11.80;13.10
30865;DHT22;17574;49.418;11.038;2023-04-15T08:32:04;11.70;13.40
30865;DHT22;17574;49.418;11.038;2023-04-15T08:34:31;11.60;15.60
30865;DHT22;17574;49.418;11.038;2023-04-15T08:36:58;11.50;15.30
30865;DHT22;17574;49.418;11.038;2023-04-15T08:39:24;11.40;14.30
30865;DHT22;17574;49.418;11.038;2023-04-15T08:42:01;11.30;15.60
30865;DHT22;17574;49.418;11.038;2023-04-15T08:44:29;11.30;17.30
30865;DHT22;17574;49.418;11.038;2023-04-15T08:47:02;11.10;20.10
30865;DHT22;17574;49.418;11.038;2023-04-15T08:49:29;10.90;22.20
30865;DHT22;17574;49.418;11.038;2023-04-15T08:51:57;11.00;25.50
30865;DHT22;17574;49.418;11.038;2023-04-15T08:54:24;10.90;21.90
30865;DHT22;17574;49.418;11.038;2023-04-15T08:56:51;10.90;22.30
30865;DHT22;17574;49.418;11.038;2023-04-15T08:59:18;11.00;21.10
30865;DHT22;17574;49.418;11.038;2023-04-15T09:01:48;11.10;21.40
30865;DHT22;17574;49.418;11.038;2023-04-15T09:04:14;11.10;20.20
30865;DHT22;17574;49.418;11.038;2023-04-15T09:06:42;11.00;20.80
30865;DHT22;17574;49.418;11.038;2023-04-15T09:09:08;11.60;19.20
30865;DHT22;17574;49.418;11.038;2023-04-15T09:11:35;11.00;20.00
30865;DHT22;17574;49.418;11.038;2023-04-15T09:14:02;11.60;20.40
30865;DHT22;17574;49.418;11.038;2023-04-15T09:16:29;11.30;19.50
30865;DHT22;17574;49.418;11.038;2023-04-15T09:18:56;14.40;20.30
30865;DHT22;17574;49.418;11.038;2023-04-15T09:21:22;11.40;18.00
30865;DHT22;17574;49.418;11.038;2023-04-15T09:23:53;11.40;17.30
30865;DHT22;17574;49.418;11.038;2023-04-15T09:26:54;11.50;16.70
30865;DHT22;17574;49.418;11.038;2023-04-15T09:29:14;11.70;16.00
30865;DHT22;17574;49.418;11.038;2023-04-15T09:31:40;11.90;13.20
30865;DHT22;17574;49.418;11.038;2023-04-15T09:34:08;11.90;13.00
30865;DHT22;17574;49.418;11.038;2023-04-15T09:39:16;11.90;11.30
30865;DHT22;17574;49.418;11.038;2023-04-15T09:41:43;11.80;10.10
30865;DHT22;17574;49.418;11.038;2023-04-15T09:44:22;11.90;11.30
30865;DHT22;17574;49.418;11.038;2023-04-15T09:46:49;11.80;11.30
30865;DHT22;17574;49.418;11.038;2023-04-15T09:49:16;15.00;13.70
30865;DHT22;17574;49.418;11.038;2023-04-15T09:51:43;12.10;11.50
30865;DHT22;17574;49.418;11.038;2023-04-15T09:54:33;11.90;12.80
30865;DHT22;17574;49.418;11.038;2023-04-15T09:57:04;11.90;11.30
30865;DHT22;17574;49.418;11.038;2023-04-15T09:59:30;11.80;11.20
30865;DHT22;17574;49.418;11.038;2023-04-15T10:01:57;11.90;11.30
30865;DHT22;17574;49.418;11.038;2023-04-15T10:04:24;11.80;11.20
30865;DHT22;17574;49.418;11.038;2023-04-15T10:06:52;11.80;11.50
30865;DHT22;17574;49.418;11.038;2023-04-15T10:09:18;11.90;11.40
30865;DHT22;17574;49.418;11.038;2023-04-15T10:11:45;11.90;14.30
30865;DHT22;17574;49.418;11.038;2023-04-15T10:14:13;12.10;15.70
30865;DHT22;17574;49.418;11.038;2023-04-15T10:16:41;11.90;12.80
30865;DHT22;17574;49.418;11.038;2023-04-15T10:19:11;11.80;14.90
30865;DHT22;17574;49.418;11.038;2023-04-15T10:21:38;11.70;15.80
30865;DHT22;17574;49.418;11.038;2023-04-15T10:24:04;11.50;17.10
30865;DHT22;17574;49.418;11.038;2023-04-15T10:26:31;11.40;18.00
30865;DHT22;17574;49.418;11.038;2023-04-15T10:28:58;11.20;18.30
30865;DHT22;17574;49.418;11.038;2023-04-15T10:31:25;11.00;21.20
30865;DHT22;17574;49.418;11.038;2023-04-15T10:33:52;11.30;25.40
30865;DHT22;17574;49.418;11.038;2023-04-15T10:36:19;10.80;25.90
30865;DHT22;17574;49.418;11.038;2023-04-15T10:38:45;10.70;25.40
30865;DHT22;17574;49.418;11.038;2023-04-15T10:41:13;10.70;28.10
30865;DHT22;17574;49.418;11.038;2023-04-15T10:43:44;10.60;28.70
30865;DHT22;17574;49.418;11.038;2023-04-15T10:46:11;10.60;28.70
30865;DHT22;17574;49.418;11.038;2023-04-15T10:48:38;10.60;29.50
30865;DHT22;17574;49.418;11.038;2023-04-15T10:51:09;10.70;29.20
30865;DHT22;17574;49.418;11.038;2023-04-15T10:53:40;10.80;28.80
30865;DHT22;17574;49.418;11.038;2023-04-15T10:56:08;10.80;30.60
30865;DHT22;17574;49.418;11.038;2023-04-15T10:58:41;10.90;30.10
30865;DHT22;17574;49.418;11.038;2023-04-15T11:01:08;11.00;31.60
30865;DHT22;17574;49.418;11.038;2023-04-15T11:03:36;11.10;29.10
30865;DHT22;17574;49.418;11.038;2023-04-15T11:06:04;11.10;25.20
30865;DHT22;17574;49.418;11.038;2023-04-15T11:11:16;11.10;31.10
30865;DHT22;17574;49.418;11.038;2023-04-15T11:13:46;11.20;31.30
30865;DHT22;17574;49.418;11.038;2023-04-15T11:16:13;11.30;29.30
30865;DHT22;17574;49.418;11.038;2023-04-15T11:18:40;11.40;29.40
30865;DHT22;17574;49.418;11.038;2023-04-15T11:21:08;10.10;25.70
30865;DHT22;17574;49.418;11.038;2023-04-15T11:23:38;11.90;23.10
30865;DHT22;17574;49.418;11.038;2023-04-15T11:26:06;11.90;20.70
30865;DHT22;17574;49.418;11.038;2023-04-15T11:28:35;12.10;20.80
30865;DHT22;17574;49.418;11.038;2023-04-15T11:31:04;12.20;20.90
30865;DHT22;17574;49.418;11.038;2023-04-15T11:33:31;12.40;18.60
30865;DHT22;17574;49.418;11.038;2023-04-15T11:35:58;12.50;16.20
30865;DHT22;17574;49.418;11.038;2023-04-15T11:38:25;12.50;15.20
30865;DHT22;17574;49.418;11.038;2023-04-15T11:40:52;12.30;15.20
30865;DHT22;17574;49.418;11.038;2023-04-15T11:43:19;12.10;17.20
30865;DHT22;17574;49.418;11.038;2023-04-15T11:45:54;12.20;17.60
30865;DHT22;17574;49.418;11.038;2023-04-15T11:48:22;11.60;17.80
30865;DHT22;17574;49.418;11.038;2023-04-15T11:50:56;11.40;20.30
30865;DHT22;17574;49.418;11.038;2023-04-15T11:53:24;11.40;22.30
30865;DHT22;17574;49.418;11.038;2023-04-15T11:56:01;11.50;22.60
30865;DHT22;17574;49.418;11.038;2023-04-15T11:58:28;11.40;23.80
30865;DHT22;17574;49.418;11.038;2023-04-15T12:00:56;11.20;20.10
30865;DHT22;17574;49.418;11.038;2023-04-15T12:03:24;11.30;22.70
30865;DHT22;17574;49.418;11.038;2023-04-15T12:11:17;11.30;24.60
30865;DHT22;17574;49.418;11.038;2023-04-15T12:13:45;11.30;22.10
30865;DHT22;17574;49.418;11.038;2023-04-15T12:16:12;11.30;22.70
30865;DHT22;17574;49.418;11.038;2023-04-15T12:18:38;11.30;22.70
30865;DHT22;17574;49.418;11.038;2023-04-15T12:21:08;11.30;24.40
30865;DHT22;17574;49.418;11.038;2023-04-15T12:23:46;11.30;23.50
30865;DHT22;17574;49.418;11.038;2023-04-15T12:26:14;11.30;21.60
30865;DHT22;17574;49.418;11.038;2023-04-15T12:28:40;11.20;24.00
30865;DHT22;17574;49.418;11.038;2023-04-15T12:31:10;11.00;22.80
30865;DHT22;17574;49.418;11.038;2023-04-15T12:33:37;11.00;23.40
30865;DHT22;17574;49.418;11.038;2023-04-15T12:36:03;11.20;23.00
30865;DHT22;17574;49.418;11.038;2023-04-15T12:38:30;10.80;23.60
30865;DHT22;17574;49.418;11.038;2023-04-15T12:40:57;10.80;24.10
30865;DHT22;17574;49.418;11.038;2023-04-15T12:43:24;10.90;25.00
30865;DHT22;17574;49.418;11.038;2023-04-15T12:45:50;10.90;24.50
30865;DHT22;17574;49.418;11.038;2023-04-15T12:48:17;10.80;24.40
30865;DHT22;17574;49.418;11.038;2023-04-15T12:50:44;11.30;24.80
30865;DHT22;17574;49.418;11.038;2023-04-15T12:53:10;10.90;26.60
30865;DHT22;17574;49.418;11.038;2023-04-15T12:55:37;11.00;24.00
30865;DHT22;17574;49.418;11.038;2023-04-15T12:58:03;11.00;21.50
30865;DHT22;17574;49.418;11.038;2023-04-15T13:00:32;11.00;23.50
30865;DHT22;17574;49.418;11.038;2023-04-15T13:02:59;11.00;22.90
30865;DHT22;17574;49.418;11.038;2023-04-15T13:05:26;11.10;22.70
30865;DHT22;17574;49.418;11.038;2023-04-15T13:07:52;11.20;22.20
30865;DHT22;17574;49.418;11.038;2023-04-15T13:10:19;11.30;21.40
30865;DHT22;17574;49.418;11.038;2023-04-15T13:12:48;11.40;20.40
30865;DHT22;17574;49.418;11.038;2023-04-15T13:15:15;11.50;19.40
30865;DHT22;17574;49.418;11.038;2023-04-15T13:17:45;11.50;20.30
30865;DHT22;17574;49.418;11.038;2023-04-15T13:20:12;11.50;21.70
30865;DHT22;17574;49.418;11.038;2023-04-15T13:22:39;11.40;21.10
30865;DHT22;17574;49.418;11.038;2023-04-15T13:25:06;11.30;21.20
30865;DHT22;17574;49.418;11.038;2023-04-15T13:27:33;11.30;21.00
30865;DHT22;17574;49.418;11.038;2023-04-15T13:30:00;11.10;22.30
30865;DHT22;17574;49.418;11.038;2023-04-15T13:32:27;11.10;22.80
30865;DHT22;17574;49.418;11.038;2023-04-15T13:34:53;11.00;23.70
30865;DHT22;17574;49.418;11.038;2023-04-15T13:37:28;11.00;24.70
30865;DHT22;17574;49.418;11.038;2023-04-15T13:39:54;10.90;24.50
30865;DHT22;17574;49.418;11.038;2023-04-15T13:42:22;10.90;25.10
30865;DHT22;17574;49.418;11.038;2023-04-15T13:44:49;10.90;25.40
30865;DHT22;17574;49.418;11.038;2023-04-15T13:47:19;11.10;24.60
30865;DHT22;17574;49.418;11.038;2023-04-15T13:49:46;14.10;28.30
30865;DHT22;17574;49.418;11.038;2023-04-15T13:52:13;11.30;23.40
30865;DHT22;17574;49.418;11.038;2023-04-15T13:54:39;11.40;24.20
30865;DHT22;17574;49.418;11.038;2023-04-15T13:57:06;11.30;23.10
30865;DHT22;17574;49.418;11.038;2023-04-15T13:59:33;11.30;22.50
30865;DHT22;17574;49.418;11.038;2023-04-15T14:02:00;11.30;21.40
30865;DHT22;17574;49.418;11.038;2023-04-15T14:04:27;11.50;23.40
30865;DHT22;17574;49.418;11.038;2023-04-15T14:06:54;11.20;25.70
30865;DHT22;17574;49.418;11.038;2023-04-15T14:09:21;11.10;29.10
30865;DHT22;17574;49.418;11.038;2023-04-15T14:11:51;11.20;29.20
30865;DHT22;17574;49.418;11.038;2023-04-15T14:14:18;11.20;29.20
30865;DHT22;17574;49.418;11.038;2023-04-15T14:16:45;11.10;32.80
30865;DHT22;17574;49.418;11.038;2023-04-15T14:19:11;11.00;35.60
30865;DHT22;17574;49.418;11.038;2023-04-15T14:21:38;11.00;40.00
30865;DHT22;17574;49.418;11.038;2023-04-15T14:24:05;12.40;62.10
30865;DHT22;17574;49.418;11.038;2023-04-15T14:26:31;14.00;28.50
30865;DHT22;17574;49.418;11.038;2023-04-15T14:28:58;14.80;15.80
30865;DHT22;17574;49.418;11.038;2023-04-15T14:31:25;15.30;9.10
30865;DHT22;17574;49.418;11.038;2023-04-15T14:33:51;15.60;4.40
30865;DHT22;17574;49.418;11.038;2023-04-15T14:36:18;15.70;4.40
30865;DHT22;17574;49.418;11.038;2023-04-15T14:38:45;15.80;1.70
30865;DHT22;17574;49.418;11.038;2023-04-15T14:41:14;15.70;1.00
30865;DHT22;17574;49.418;11.038;2023-04-15T14:43:41;15.60;1.00
30865;DHT22;17574;49.418;11.038;2023-04-15T14:46:09;14.90;5.10
30865;DHT22;17574;49.418;11.038;2023-04-15T14:48:36;15.00;2.70
30865;DHT22;17574;49.418;11.038;2023-04-15T14:51:02;13.90;5.70
30865;DHT22;17574;49.418;11.038;2023-04-15T14:53:29;13.00;12.10
30865;DHT22;17574;49.418;11.038;2023-04-15T14:55:56;13.10;20.00
30865;DHT22;17574;49.418;11.038;2023-04-15T14:58:23;11.90;25.20
30865;DHT22;17574;49.418;11.038;2023-04-15T15:00:49;11.60;29.50
30865;DHT22;17574;49.418;11.038;2023-04-15T15:03:16;11.30;35.60
30865;DHT22;17574;49.418;11.038;2023-04-15T15:05:44;11.10;39.90
30865;DHT22;17574;49.418;11.038;2023-04-15T15:08:11;10.90;43.30
30865;DHT22;17574;49.418;11.038;2023-04-15T15:10:38;10.70;46.10
30865;DHT22;17574;49.418;11.038;2023-04-15T15:13:15;10.70;50.40
30865;DHT22;17574;49.418;11.038;2023-04-15T15:15:42;10.60;50.40
30865;DHT22;17574;49.418;11.038;2023-04-15T15:18:09;10.50;50.20
30865;DHT22;17574;49.418;11.038;2023-04-15T15:20:35;10.40;52.10
30865;DHT22;17574;49.418;11.038;2023-04-15T15:23:02;10.40;54.40
30865;DHT22;17574;49.418;11.038;2023-04-15T15:25:29;10.40;54.80
30865;DHT22;17574;49.418;11.038;2023-04-15T15:27:56;10.30;57.30
30865;DHT22;17574;49.418;11.038;2023-04-15T15:30:22;10.20;56.40
30865;DHT22;17574;49.418;11.038;2023-04-15T15:32:49;10.20;60.30
30865;DHT22;17574;49.418;11.038;2023-04-15T15:35:16;10.20;60.90
30865;DHT22;17574;49.418;11.038;2023-04-15T15:37:44;10.20;60.30
30865;DHT22;17574;49.418;11.038;2023-04-15T15:40:11;10.10;60.30
30865;DHT22;17574;49.418;11.038;2023-04-15T15:42:37;10.10;60.30
30865;DHT22;17574;49.418;11.038;2023-04-15T15:45:04;10.10;62.00
30865;DHT22;17574;49.418;11.038;2023-04-15T15:47:31;9.70;63.90
30865;DHT22;17574;49.418;11.038;2023-04-15T15:49:58;10.00;62.70
30865;DHT22;17574;49.418;11.038;2023-04-15T15:52:25;10.00;64.60
30865;DHT22;17574;49.418;11.038;2023-04-15T15:54:51;9.90;67.50
30865;DHT22;17574;49.418;11.038;2023-04-15T15:57:18;9.90;69.80
30865;DHT22;17574;49.418;11.038;2023-04-15T15:59:44;9.80;70.80
30865;DHT22;17574;49.418;11.038;2023-04-15T16:02:12;9.70;73.40
30865;DHT22;17574;49.418;11.038;2023-04-15T16:04:39;9.70;74.70
30865;DHT22;17574;49.418;11.038;2023-04-15T16:07:07;9.70;75.80
30865;DHT22;17574;49.418;11.038;2023-04-15T16:09:33;9.70;77.60
30865;DHT22;17574;49.418;11.038;2023-04-15T16:12:00;9.70;77.60
30865;DHT22;17574;49.418;11.038;2023-04-15T16:14:28;9.70;79.90
30865;DHT22;17574;49.418;11.038;2023-04-15T16:16:55;9.60;79.80
30865;DHT22;17574;49.418;11.038;2023-04-15T16:19:22;9.70;80.10
30865;DHT22;17574;49.418;11.038;2023-04-15T16:21:49;9.70;81.40
30865;DHT22;17574;49.418;11.038;2023-04-15T16:24:16;9.70;82.10
30865;DHT22;17574;49.418;11.038;2023-04-15T16:26:43;9.60;83.10
30865;DHT22;17574;49.418;11.038;2023-04-15T16:29:09;9.50;85.40
30865;DHT22;17574;49.418;11.038;2023-04-15T16:31:36;9.60;85.80
30865;DHT22;17574;49.418;11.038;2023-04-15T16:34:05;9.50;85.70
30865;DHT22;17574;49.418;11.038;2023-04-15T16:36:35;9.60;86.30
30865;DHT22;17574;49.418;11.038;2023-04-15T16:39:02;9.60;86.50
30865;DHT22;17574;49.418;11.038;2023-04-15T16:41:29;9.50;85.70
30865;DHT22;17574;49.418;11.038;2023-04-15T16:43:59;9.70;86.60
30865;DHT22;17574;49.418;11.038;2023-04-15T16:46:27;9.50;87.30
30865;DHT22;17574;49.418;11.038;2023-04-15T16:48:55;9.60;87.90
30865;DHT22;17574;49.418;11.038;2023-04-15T16:51:21;9.60;88.30
30865;DHT22;17574;49.418;11.038;2023-04-15T16:53:48;9.60;87.60
30865;DHT22;17574;49.418;11.038;2023-04-15T16:56:14;9.60;88.00
30865;DHT22;17574;49.418;11.038;2023-04-15T16:58:42;9.60;87.30
30865;DHT22;17574;49.418;11.038;2023-04-15T17:01:08;9.60;87.10
30865;DHT22;17574;49.418;11.038;2023-04-15T17:03:35;9.50;88.00
30865;DHT22;17574;49.418;11.038;2023-04-15T17:06:02;9.50;88.40
30865;DHT22;17574;49.418;11.038;2023-04-15T17:08:29;9.50;89.40
30865;DHT22;17574;49.418;11.038;2023-04-15T17:10:56;9.50;89.90
30865;DHT22;17574;49.418;11.038;2023-04-15T17:13:23;9.50;88.80
30865;DHT22;17574;49.418;11.038;2023-04-15T17:15:50;9.40;88.80
30865;DHT22;17574;49.418;11.038;2023-04-15T17:18:20;9.40;88.40
30865;DHT22;17574;49.418;11.038;2023-04-15T17:20:46;9.40;88.60
30865;DHT22;17574;49.418;11.038;2023-04-15T17:23:13;9.40;89.00
30865;DHT22;17574;49.418;11.038;2023-04-15T17:25:39;9.50;89.30
30865;DHT22;17574;49.418;11.038;2023-04-15T17:28:06;9.40;89.50
30865;DHT22;17574;49.418;11.038;2023-04-15T17:35:27;9.50;87.50
30865;DHT22;17574;49.418;11.038;2023-04-15T17:45:15;9.50;86.30
30865;DHT22;17574;49.418;11.038;2023-04-15T17:47:42;9.50;85.60
30865;DHT22;17574;49.418;11.038;2023-04-15T17:50:09;9.50;85.60
30865;DHT22;17574;49.418;11.038;2023-04-15T17:59:56;9.50;85.60
30865;DHT22;17574;49.418;11.038;2023-04-15T18:04:50;9.40;86.70
30865;DHT22;17574;49.418;11.038;2023-04-15T18:48:58;9.30;89.90
30865;DHT22;17574;49.418;11.038;2023-04-15T19:35:59;9.20;90.90
30865;DHT22;17574;49.418;11.038;2023-04-15T20:07:53;9.10;91.80
30865;DHT22;17574;49.418;11.038;2023-04-15T20:10:20;9.10;92.40
30865;DHT22;17574;49.418;11.038;2023-04-15T20:17:45;9.20;92.70
30865;DHT22;17574;49.418;11.038;2023-04-15T21:24:05;9.00;93.10
30865;DHT22;17574;49.418;11.038;2023-04-15T21:26:33;9.00;93.40
30865;DHT22;17574;49.418;11.038;2023-04-15T21:29:01;9.00;93.40
30865;DHT22;17574;49.418;11.038;2023-04-15T21:36:22;9.00;93.90
30865;DHT22;17574;49.418;11.038;2023-04-15T21:48:49;9.00;94.40
30865;DHT22;17574;49.418;11.038;2023-04-15T21:56:12;8.90;94.80
30865;DHT22;17574;49.418;11.038;2023-04-15T21:58:38;8.80;94.80
30865;DHT22;17574;49.418;11.038;2023-04-15T22:01:05;8.80;95.50
30865;DHT22;17574;49.418;11.038;2023-04-15T22:03:32;8.80;95.60
30865;DHT22;17574;49.418;11.038;2023-04-15T22:06:00;8.80;95.70
30865;DHT22;17574;49.418;11.038;2023-04-15T22:08:28;8.80;96.30
30865;DHT22;17574;49.418;11.038;2023-04-15T22:13:24;8.80;96.50
30865;DHT22;17574;49.418;11.038;2023-04-15T22:15:51;8.80;96.50
30865;DHT22;17574;49.418;11.038;2023-04-15T22:18:17;8.80;96.70
30865;DHT22;17574;49.418;11.038;2023-04-15T22:20:44;8.80;96.60
30865;DHT22;17574;49.418;11.038;2023-04-15T22:23:11;8.70;96.90
30865;DHT22;17574;49.418;11.038;2023-04-15T22:25:37;8.70;96.90
30865;DHT22;17574;49.418;11.038;2023-04-15T22:28:07;8.80;97.20
30865;DHT22;17574;49.418;11.038;2023-04-15T22:30:37;8.80;97.10
30865;DHT22;17574;49.418;11.038;2023-04-15T22:33:04;8.70;97.20
30865;DHT22;17574;49.418;11.038;2023-04-15T22:35:32;8.70;97.40
30865;DHT22;17574;49.418;11.038;2023-04-15T22:37:59;8.70;97.40
30865;DHT22;17574;49.418;11.038;2023-04-15T22:40:26;8.70;97.40
30865;DHT22;17574;49.418;11.038;2023-04-15T22:42:53;8.80;97.60
30865;DHT22;17574;49.418;11.038;2023-04-15T22:45:19;8.70;98.30
30865;DHT22;17574;49.418;11.038;2023-04-15T22:47:46;7.70;97.80
30865;DHT22;17574;49.418;11.038;2023-04-15T22:50:13;8.80;98.40
30865;DHT22;17574;49.418;11.038;2023-04-15T22:52:39;8.60;98.30
30865;DHT22;17574;49.418;11.038;2023-04-15T22:55:06;9.40;98.60
30865;DHT22;17574;49.418;11.038;2023-04-15T22:57:33;8.70;98.10
30865;DHT22;17574;49.418;11.038;2023-04-15T23:00:00;8.80;98.20
30865;DHT22;17574;49.418;11.038;2023-04-15T23:02:27;9.40;98.60
30865;DHT22;17574;49.418;11.038;2023-04-15T23:04:54;8.80;98.40
30865;DHT22;17574;49.418;11.038;2023-04-15T23:07:21;8.80;98.20
30865;DHT22;17574;49.418;11.038;2023-04-15T23:09:47;8.80;98.20
30865;DHT22;17574;49.418;11.038;2023-04-15T23:12:14;8.80;98.20
30865;DHT22;17574;49.418;11.038;2023-04-15T23:19:34;8.90;98.10
30865;DHT22;17574;49.418;11.038;2023-04-15T23:22:01;8.90;98.20
30865;DHT22;17574;49.418;11.038;2023-04-15T23:24:28;8.80;98.20
30865;DHT22;17574;49.418;11.038;2023-04-15T23:26:54;8.80;98.40
30865;DHT22;17574;49.418;11.038;2023-04-15T23:29:22;8.80;98.40
30865;DHT22;17574;49.418;11.038;2023-04-15T23:31:49;8.80;98.40
30865;DHT22;17574;49.418;11.038;2023-04-15T23:34:16;9.20;98.80
30865;DHT22;17574;49.418;11.038;2023-04-15T23:36:42;8.80;98.70
30865;DHT22;17574;49.418;11.038;2023-04-15T23:39:09;8.80;98.80
30865;DHT22;17574;49.418;11.038;2023-04-15T23:41:36;8.80;98.80
30865;DHT22;17574;49.418;11.038;2023-04-15T23:48:56;8.90;98.20
30865;DHT22;17574;49.418;11.038;2023-04-15T23:51:23;8.90;98.20
30865;DHT22;17574;49.418;11.038;2023-04-15T23:58:44;8.90;98.20
